sensor_id;sensor_type;location;lat;lon;timestamp;P1;durP1;ratioP1;P2;durP2;ratioP2
54197;SDS011;40105;52.366;17.000;2023-05-18T00:01:53;8.02;;;2.17;;
54197;SDS011;40105;52.366;17.000;2023-05-18T00:04:18;6.20;;;2.03;;
54197;SDS011;40105;52.366;17.000;2023-05-18T00:06:47;19.42;;;2.65;;
54197;SDS011;40105;52.366;17.000;2023-05-18T00:09:12;16.77;;;2.03;;
54197;SDS011;40105;52.366;17.000;2023-05-18T00:11:38;17.30;;;2.33;;
54197;SDS011;40105;52.366;17.000;2023-05-18T00:14:04;11.35;;;2.40;;
54197;SDS011;40105;52.366;17.000;2023-05-18T00:16:31;5.47;;;2.38;;
54197;SDS011;40105;52.366;17.000;2023-05-18T00:18:56;17.30;;;2.13;;
54197;SDS011;40105;52.366;17.000;2023-05-18T00:21:21;13.07;;;2.25;;
54197;SDS011;40105;52.366;17.000;2023-05-18T00:23:47;13.87;;;2.07;;
54197;SDS011;40105;52.366;17.000;2023-05-18T00:26:14;9.48;;;2.75;;
54197;SDS011;40105;52.366;17.000;2023-05-18T00:28:39;9.10;;;2.30;;
54197;SDS011;40105;52.366;17.000;2023-05-18T00:31:04;9.82;;;3.03;;
54197;SDS011;40105;52.366;17.000;2023-05-18T00:33:31;11.38;;;2.58;;
54197;SDS011;40105;52.366;17.000;2023-05-18T00:35:56;12.85;;;2.92;;
54197;SDS011;40105;52.366;17.000;2023-05-18T00:38:21;12.57;;;2.83;;
54197;SDS011;40105;52.366;17.000;2023-05-18T00:40:46;9.27;;;2.40;;
54197;SDS011;40105;52.366;17.000;2023-05-18T00:43:11;7.43;;;2.60;;
54197;SDS011;40105;52.366;17.000;2023-05-18T00:45:37;10.03;;;2.33;;
54197;SDS011;40105;52.366;17.000;2023-05-18T00:48:02;9.40;;;2.05;;
54197;SDS011;40105;52.366;17.000;2023-05-18T00:50:27;12.88;;;2.25;;
54197;SDS011;40105;52.366;17.000;2023-05-18T00:52:53;4.43;;;2.10;;
54197;SDS011;40105;52.366;17.000;2023-05-18T00:55:18;13.25;;;2.17;;
54197;SDS011;40105;52.366;17.000;2023-05-18T00:57:44;11.48;;;2.47;;
54197;SDS011;40105;52.366;17.000;2023-05-18T01:00:12;10.77;;;2.08;;
54197;SDS011;40105;52.366;17.000;2023-05-18T01:02:40;10.18;;;2.53;;
54197;SDS011;40105;52.366;17.000;2023-05-18T01:05:09;8.20;;;1.55;;
54197;SDS011;40105;52.366;17.000;2023-05-18T01:07:35;15.88;;;2.10;;
54197;SDS011;40105;52.366;17.000;2023-05-18T01:10:00;9.00;;;2.40;;
54197;SDS011;40105;52.366;17.000;2023-05-18T01:12:31;5.90;;;2.13;;
54197;SDS011;40105;52.366;17.000;2023-05-18T01:14:59;8.45;;;2.63;;
54197;SDS011;40105;52.366;17.000;2023-05-18T01:17:45;8.30;;;1.88;;
54197;SDS011;40105;52.366;17.000;2023-05-18T01:20:19;7.47;;;2.33;;
54197;SDS011;40105;52.366;17.000;2023-05-18T01:25:16;8.80;;;2.15;;
54197;SDS011;40105;52.366;17.000;2023-05-18T01:27:42;8.13;;;1.83;;
54197;SDS011;40105;52.366;17.000;2023-05-18T01:30:11;14.35;;;1.40;;
54197;SDS011;40105;52.366;17.000;2023-05-18T01:32:38;13.55;;;2.50;;
54197;SDS011;40105;52.366;17.000;2023-05-18T01:35:04;5.65;;;1.48;;
54197;SDS011;40105;52.366;17.000;2023-05-18T01:37:29;19.60;;;2.28;;
54197;SDS011;40105;52.366;17.000;2023-05-18T01:39:54;8.57;;;2.05;;
54197;SDS011;40105;52.366;17.000;2023-05-18T01:42:20;6.50;;;1.93;;
54197;SDS011;40105;52.366;17.000;2023-05-18T01:44:49;8.50;;;2.05;;
54197;SDS011;40105;52.366;17.000;2023-05-18T01:47:15;6.38;;;1.90;;
54197;SDS011;40105;52.366;17.000;2023-05-18T01:49:42;7.18;;;1.83;;
54197;SDS011;40105;52.366;17.000;2023-05-18T01:52:10;8.15;;;2.05;;
54197;SDS011;40105;52.366;17.000;2023-05-18T01:54:37;15.57;;;2.08;;
54197;SDS011;40105;52.366;17.000;2023-05-18T01:57:05;5.03;;;1.83;;
54197;SDS011;40105;52.366;17.000;2023-05-18T01:59:30;6.72;;;2.00;;
54197;SDS011;40105;52.366;17.000;2023-05-18T02:01:57;6.15;;;2.33;;
54197;SDS011;40105;52.366;17.000;2023-05-18T02:04:23;11.50;;;2.35;;
54197;SDS011;40105;52.366;17.000;2023-05-18T02:06:48;12.63;;;1.57;;
54197;SDS011;40105;52.366;17.000;2023-05-18T02:09:13;6.13;;;1.87;;
54197;SDS011;40105;52.366;17.000;2023-05-18T02:11:38;6.70;;;1.87;;
54197;SDS011;40105;52.366;17.000;2023-05-18T02:14:03;16.10;;;2.47;;
54197;SDS011;40105;52.366;17.000;2023-05-18T02:16:29;7.50;;;1.80;;
54197;SDS011;40105;52.366;17.000;2023-05-18T02:18:54;7.07;;;1.90;;
54197;SDS011;40105;52.366;17.000;2023-05-18T02:21:20;9.90;;;2.72;;
54197;SDS011;40105;52.366;17.000;2023-05-18T02:23:46;9.27;;;1.95;;
54197;SDS011;40105;52.366;17.000;2023-05-18T02:26:11;13.68;;;2.30;;
54197;SDS011;40105;52.366;17.000;2023-05-18T02:28:36;9.93;;;2.00;;
54197;SDS011;40105;52.366;17.000;2023-05-18T02:31:08;7.43;;;2.45;;
54197;SDS011;40105;52.366;17.000;2023-05-18T02:33:33;5.30;;;2.40;;
54197;SDS011;40105;52.366;17.000;2023-05-18T02:36:00;6.15;;;2.25;;
54197;SDS011;40105;52.366;17.000;2023-05-18T02:38:26;7.88;;;2.72;;
54197;SDS011;40105;52.366;17.000;2023-05-18T02:40:52;16.60;;;3.00;;
54197;SDS011;40105;52.366;17.000;2023-05-18T02:43:17;4.93;;;2.07;;
54197;SDS011;40105;52.366;17.000;2023-05-18T02:45:42;6.87;;;1.97;;
54197;SDS011;40105;52.366;17.000;2023-05-18T02:48:07;16.03;;;2.90;;
54197;SDS011;40105;52.366;17.000;2023-05-18T02:50:32;7.70;;;2.37;;
54197;SDS011;40105;52.366;17.000;2023-05-18T02:52:57;12.03;;;2.73;;
54197;SDS011;40105;52.366;17.000;2023-05-18T02:55:22;7.60;;;2.40;;
54197;SDS011;40105;52.366;17.000;2023-05-18T02:57:48;7.32;;;2.53;;
54197;SDS011;40105;52.366;17.000;2023-05-18T03:00:13;4.30;;;1.80;;
54197;SDS011;40105;52.366;17.000;2023-05-18T03:02:40;7.45;;;2.35;;
54197;SDS011;40105;52.366;17.000;2023-05-18T03:05:08;9.85;;;1.88;;
54197;SDS011;40105;52.366;17.000;2023-05-18T03:07:33;6.43;;;2.42;;
54197;SDS011;40105;52.366;17.000;2023-05-18T03:09:58;9.20;;;2.73;;
54197;SDS011;40105;52.366;17.000;2023-05-18T03:12:26;7.65;;;2.35;;
54197;SDS011;40105;52.366;17.000;2023-05-18T03:14:51;11.07;;;2.07;;
54197;SDS011;40105;52.366;17.000;2023-05-18T03:17:16;12.00;;;2.33;;
54197;SDS011;40105;52.366;17.000;2023-05-18T03:19:41;8.77;;;2.50;;
54197;SDS011;40105;52.366;17.000;2023-05-18T03:22:06;19.80;;;3.73;;
54197;SDS011;40105;52.366;17.000;2023-05-18T03:24:31;6.27;;;2.00;;
54197;SDS011;40105;52.366;17.000;2023-05-18T03:27:05;13.10;;;2.45;;
54197;SDS011;40105;52.366;17.000;2023-05-18T03:29:30;10.65;;;2.53;;
54197;SDS011;40105;52.366;17.000;2023-05-18T03:31:55;18.70;;;2.83;;
54197;SDS011;40105;52.366;17.000;2023-05-18T03:34:20;6.83;;;2.20;;
54197;SDS011;40105;52.366;17.000;2023-05-18T03:36:45;11.53;;;2.03;;
54197;SDS011;40105;52.366;17.000;2023-05-18T03:39:11;11.25;;;2.80;;
54197;SDS011;40105;52.366;17.000;2023-05-18T03:41:36;9.15;;;2.55;;
54197;SDS011;40105;52.366;17.000;2023-05-18T03:44:02;13.63;;;2.50;;
54197;SDS011;40105;52.366;17.000;2023-05-18T03:46:27;9.13;;;2.23;;
54197;SDS011;40105;52.366;17.000;2023-05-18T03:48:52;8.80;;;2.50;;
54197;SDS011;40105;52.366;17.000;2023-05-18T03:51:18;13.27;;;2.78;;
54197;SDS011;40105;52.366;17.000;2023-05-18T03:53:43;20.07;;;2.27;;
54197;SDS011;40105;52.366;17.000;2023-05-18T03:56:08;26.73;;;3.25;;
54197;SDS011;40105;52.366;17.000;2023-05-18T03:58:34;9.23;;;3.27;;
54197;SDS011;40105;52.366;17.000;2023-05-18T04:00:59;16.63;;;5.17;;
54197;SDS011;40105;52.366;17.000;2023-05-18T04:03:24;17.75;;;3.63;;
54197;SDS011;40105;52.366;17.000;2023-05-18T04:05:50;18.15;;;4.53;;
54197;SDS011;40105;52.366;17.000;2023-05-18T04:08:17;16.17;;;3.78;;
54197;SDS011;40105;52.366;17.000;2023-05-18T04:10:42;7.83;;;2.97;;
54197;SDS011;40105;52.366;17.000;2023-05-18T04:13:08;7.70;;;2.10;;
54197;SDS011;40105;52.366;17.000;2023-05-18T04:15:33;18.67;;;3.05;;
54197;SDS011;40105;52.366;17.000;2023-05-18T04:17:58;15.10;;;2.75;;
54197;SDS011;40105;52.366;17.000;2023-05-18T04:20:25;6.90;;;2.78;;
54197;SDS011;40105;52.366;17.000;2023-05-18T04:22:52;13.43;;;3.53;;
54197;SDS011;40105;52.366;17.000;2023-05-18T04:25:17;15.63;;;3.15;;
54197;SDS011;40105;52.366;17.000;2023-05-18T04:27:43;7.53;;;3.30;;
54197;SDS011;40105;52.366;17.000;2023-05-18T04:30:11;9.50;;;2.67;;
54197;SDS011;40105;52.366;17.000;2023-05-18T04:32:37;14.10;;;2.83;;
54197;SDS011;40105;52.366;17.000;2023-05-18T04:35:05;10.60;;;2.67;;
54197;SDS011;40105;52.366;17.000;2023-05-18T04:37:31;13.70;;;2.60;;
54197;SDS011;40105;52.366;17.000;2023-05-18T04:39:56;11.63;;;2.90;;
54197;SDS011;40105;52.366;17.000;2023-05-18T04:42:22;10.82;;;3.30;;
54197;SDS011;40105;52.366;17.000;2023-05-18T04:44:47;9.90;;;2.93;;
54197;SDS011;40105;52.366;17.000;2023-05-18T04:47:16;26.05;;;4.07;;
54197;SDS011;40105;52.366;17.000;2023-05-18T04:49:41;18.57;;;2.40;;
54197;SDS011;40105;52.366;17.000;2023-05-18T04:52:07;22.80;;;3.25;;
54197;SDS011;40105;52.366;17.000;2023-05-18T04:54:34;10.13;;;2.72;;
54197;SDS011;40105;52.366;17.000;2023-05-18T04:56:59;11.77;;;2.70;;
54197;SDS011;40105;52.366;17.000;2023-05-18T04:59:26;12.05;;;2.60;;
54197;SDS011;40105;52.366;17.000;2023-05-18T05:01:52;18.23;;;2.85;;
54197;SDS011;40105;52.366;17.000;2023-05-18T05:04:19;8.77;;;2.30;;
54197;SDS011;40105;52.366;17.000;2023-05-18T05:06:44;9.65;;;2.72;;
54197;SDS011;40105;52.366;17.000;2023-05-18T05:09:09;27.50;;;3.27;;
54197;SDS011;40105;52.366;17.000;2023-05-18T05:11:37;9.73;;;2.33;;
54197;SDS011;40105;52.366;17.000;2023-05-18T05:14:02;15.17;;;3.03;;
54197;SDS011;40105;52.366;17.000;2023-05-18T05:16:28;11.37;;;2.27;;
54197;SDS011;40105;52.366;17.000;2023-05-18T05:18:53;17.37;;;2.30;;
54197;SDS011;40105;52.366;17.000;2023-05-18T05:21:18;7.70;;;2.50;;
54197;SDS011;40105;52.366;17.000;2023-05-18T05:23:43;9.67;;;2.37;;
54197;SDS011;40105;52.366;17.000;2023-05-18T05:26:09;8.57;;;1.92;;
54197;SDS011;40105;52.366;17.000;2023-05-18T05:28:34;7.67;;;2.03;;
54197;SDS011;40105;52.366;17.000;2023-05-18T05:30:59;12.18;;;1.75;;
54197;SDS011;40105;52.366;17.000;2023-05-18T05:33:25;12.70;;;2.13;;
54197;SDS011;40105;52.366;17.000;2023-05-18T05:35:50;4.07;;;1.47;;
54197;SDS011;40105;52.366;17.000;2023-05-18T05:38:15;8.47;;;1.87;;
54197;SDS011;40105;52.366;17.000;2023-05-18T05:40:40;7.47;;;1.70;;
54197;SDS011;40105;52.366;17.000;2023-05-18T05:43:05;6.70;;;1.60;;
54197;SDS011;40105;52.366;17.000;2023-05-18T05:45:31;8.30;;;2.17;;
54197;SDS011;40105;52.366;17.000;2023-05-18T05:47:56;13.20;;;2.47;;
54197;SDS011;40105;52.366;17.000;2023-05-18T05:50:21;6.80;;;1.87;;
54197;SDS011;40105;52.366;17.000;2023-05-18T05:52:46;36.63;;;2.53;;
54197;SDS011;40105;52.366;17.000;2023-05-18T05:55:11;6.47;;;1.47;;
54197;SDS011;40105;52.366;17.000;2023-05-18T05:57:36;6.23;;;1.13;;
54197;SDS011;40105;52.366;17.000;2023-05-18T06:00:03;8.07;;;1.63;;
54197;SDS011;40105;52.366;17.000;2023-05-18T06:02:29;5.40;;;1.33;;
54197;SDS011;40105;52.366;17.000;2023-05-18T06:04:54;8.35;;;1.60;;
54197;SDS011;40105;52.366;17.000;2023-05-18T06:07:19;3.53;;;0.93;;
54197;SDS011;40105;52.366;17.000;2023-05-18T06:09:45;6.33;;;1.30;;
54197;SDS011;40105;52.366;17.000;2023-05-18T06:12:10;10.03;;;1.40;;
54197;SDS011;40105;52.366;17.000;2023-05-18T06:14:35;23.30;;;1.63;;
54197;SDS011;40105;52.366;17.000;2023-05-18T06:17:00;2.27;;;0.70;;
54197;SDS011;40105;52.366;17.000;2023-05-18T06:19:25;3.90;;;0.87;;
54197;SDS011;40105;52.366;17.000;2023-05-18T06:21:50;3.57;;;0.87;;
54197;SDS011;40105;52.366;17.000;2023-05-18T06:24:16;11.80;;;2.93;;
54197;SDS011;40105;52.366;17.000;2023-05-18T06:26:41;8.43;;;1.13;;
54197;SDS011;40105;52.366;17.000;2023-05-18T06:29:06;3.40;;;0.77;;
54197;SDS011;40105;52.366;17.000;2023-05-18T06:31:33;7.70;;;1.10;;
54197;SDS011;40105;52.366;17.000;2023-05-18T06:33:58;8.88;;;0.80;;
54197;SDS011;40105;52.366;17.000;2023-05-18T06:36:23;5.47;;;1.10;;
54197;SDS011;40105;52.366;17.000;2023-05-18T06:38:49;1.97;;;0.43;;
54197;SDS011;40105;52.366;17.000;2023-05-18T06:41:14;8.85;;;0.80;;
54197;SDS011;40105;52.366;17.000;2023-05-18T06:43:39;8.93;;;0.90;;
54197;SDS011;40105;52.366;17.000;2023-05-18T06:46:05;5.78;;;1.05;;
54197;SDS011;40105;52.366;17.000;2023-05-18T06:48:31;7.78;;;0.75;;
54197;SDS011;40105;52.366;17.000;2023-05-18T06:50:56;8.77;;;1.87;;
54197;SDS011;40105;52.366;17.000;2023-05-18T06:53:22;10.63;;;1.10;;
54197;SDS011;40105;52.366;17.000;2023-05-18T06:55:47;3.47;;;1.17;;
54197;SDS011;40105;52.366;17.000;2023-05-18T06:58:12;8.90;;;1.77;;
54197;SDS011;40105;52.366;17.000;2023-05-18T07:00:37;4.50;;;0.80;;
54197;SDS011;40105;52.366;17.000;2023-05-18T07:03:03;3.88;;;0.60;;
54197;SDS011;40105;52.366;17.000;2023-05-18T07:05:28;1.23;;;0.57;;
54197;SDS011;40105;52.366;17.000;2023-05-18T07:07:54;13.15;;;0.82;;
54197;SDS011;40105;52.366;17.000;2023-05-18T07:10:19;4.67;;;0.80;;
54197;SDS011;40105;52.366;17.000;2023-05-18T07:12:46;7.68;;;0.82;;
54197;SDS011;40105;52.366;17.000;2023-05-18T07:15:11;5.63;;;0.67;;
54197;SDS011;40105;52.366;17.000;2023-05-18T07:17:36;8.43;;;0.97;;
54197;SDS011;40105;52.366;17.000;2023-05-18T07:20:02;1.60;;;0.50;;
54197;SDS011;40105;52.366;17.000;2023-05-18T07:22:30;2.03;;;0.60;;
54197;SDS011;40105;52.366;17.000;2023-05-18T07:24:55;4.68;;;0.65;;
54197;SDS011;40105;52.366;17.000;2023-05-18T07:27:22;1.40;;;0.50;;
54197;SDS011;40105;52.366;17.000;2023-05-18T07:29:47;4.43;;;0.60;;
54197;SDS011;40105;52.366;17.000;2023-05-18T07:32:12;12.30;;;1.03;;
54197;SDS011;40105;52.366;17.000;2023-05-18T07:34:38;3.10;;;0.70;;
54197;SDS011;40105;52.366;17.000;2023-05-18T07:37:03;3.03;;;0.70;;
54197;SDS011;40105;52.366;17.000;2023-05-18T07:39:29;3.78;;;0.68;;
54197;SDS011;40105;52.366;17.000;2023-05-18T07:41:54;4.90;;;0.90;;
54197;SDS011;40105;52.366;17.000;2023-05-18T07:44:20;2.20;;;0.63;;
54197;SDS011;40105;52.366;17.000;2023-05-18T07:46:45;3.67;;;0.82;;
54197;SDS011;40105;52.366;17.000;2023-05-18T07:49:10;8.35;;;1.15;;
54197;SDS011;40105;52.366;17.000;2023-05-18T07:51:35;5.77;;;0.90;;
54197;SDS011;40105;52.366;17.000;2023-05-18T07:54:01;4.20;;;0.60;;
54197;SDS011;40105;52.366;17.000;2023-05-18T07:56:26;3.33;;;0.80;;
54197;SDS011;40105;52.366;17.000;2023-05-18T07:58:51;4.80;;;1.13;;
54197;SDS011;40105;52.366;17.000;2023-05-18T08:01:16;3.53;;;0.50;;
54197;SDS011;40105;52.366;17.000;2023-05-18T08:03:42;1.67;;;0.53;;
54197;SDS011;40105;52.366;17.000;2023-05-18T08:06:07;2.90;;;0.87;;
54197;SDS011;40105;52.366;17.000;2023-05-18T08:08:32;2.93;;;0.50;;
54197;SDS011;40105;52.366;17.000;2023-05-18T08:11:00;1.25;;;0.60;;
54197;SDS011;40105;52.366;17.000;2023-05-18T08:13:25;2.23;;;0.73;;
54197;SDS011;40105;52.366;17.000;2023-05-18T08:15:50;2.40;;;0.80;;
54197;SDS011;40105;52.366;17.000;2023-05-18T08:18:15;10.13;;;0.60;;
54197;SDS011;40105;52.366;17.000;2023-05-18T08:20:40;5.70;;;0.80;;
54197;SDS011;40105;52.366;17.000;2023-05-18T08:23:06;6.00;;;0.40;;
54197;SDS011;40105;52.366;17.000;2023-05-18T08:25:31;20.20;;;0.97;;
54197;SDS011;40105;52.366;17.000;2023-05-18T08:27:56;5.17;;;0.60;;
54197;SDS011;40105;52.366;17.000;2023-05-18T08:30:21;0.70;;;0.33;;
54197;SDS011;40105;52.366;17.000;2023-05-18T08:32:47;6.73;;;0.60;;
54197;SDS011;40105;52.366;17.000;2023-05-18T08:35:12;2.17;;;0.68;;
54197;SDS011;40105;52.366;17.000;2023-05-18T08:37:37;1.08;;;0.52;;
54197;SDS011;40105;52.366;17.000;2023-05-18T08:40:04;2.60;;;0.70;;
54197;SDS011;40105;52.366;17.000;2023-05-18T08:47:40;1.30;;;0.65;;
54197;SDS011;40105;52.366;17.000;2023-05-18T08:50:06;1.17;;;0.60;;
54197;SDS011;40105;52.366;17.000;2023-05-18T08:52:35;9.30;;;1.10;;
54197;SDS011;40105;52.366;17.000;2023-05-18T08:55:02;2.78;;;0.88;;
54197;SDS011;40105;52.366;17.000;2023-05-18T08:57:29;14.52;;;1.02;;
54197;SDS011;40105;52.366;17.000;2023-05-18T08:59:56;6.82;;;0.75;;
54197;SDS011;40105;52.366;17.000;2023-05-18T09:02:22;2.28;;;0.85;;
54197;SDS011;40105;52.366;17.000;2023-05-18T09:04:48;2.17;;;0.52;;
54197;SDS011;40105;52.366;17.000;2023-05-18T09:07:13;5.60;;;0.77;;
54197;SDS011;40105;52.366;17.000;2023-05-18T09:09:38;2.97;;;0.93;;
54197;SDS011;40105;52.366;17.000;2023-05-18T09:12:04;3.42;;;1.00;;
54197;SDS011;40105;52.366;17.000;2023-05-18T09:14:30;2.88;;;1.00;;
54197;SDS011;40105;52.366;17.000;2023-05-18T09:16:55;5.05;;;0.77;;
54197;SDS011;40105;52.366;17.000;2023-05-18T09:19:21;2.20;;;1.10;;
54197;SDS011;40105;52.366;17.000;2023-05-18T09:21:48;7.47;;;0.98;;
54197;SDS011;40105;52.366;17.000;2023-05-18T09:24:13;2.10;;;0.57;;
54197;SDS011;40105;52.366;17.000;2023-05-18T09:26:39;3.85;;;0.82;;
54197;SDS011;40105;52.366;17.000;2023-05-18T09:29:14;3.03;;;0.80;;
54197;SDS011;40105;52.366;17.000;2023-05-18T09:31:40;2.15;;;0.80;;
54197;SDS011;40105;52.366;17.000;2023-05-18T09:34:05;8.30;;;1.23;;
54197;SDS011;40105;52.366;17.000;2023-05-18T09:36:30;3.00;;;0.90;;
54197;SDS011;40105;52.366;17.000;2023-05-18T09:38:56;3.10;;;0.80;;
54197;SDS011;40105;52.366;17.000;2023-05-18T09:41:24;2.85;;;0.82;;
54197;SDS011;40105;52.366;17.000;2023-05-18T09:43:49;4.57;;;1.40;;
54197;SDS011;40105;52.366;17.000;2023-05-18T09:46:15;2.40;;;0.80;;
54197;SDS011;40105;52.366;17.000;2023-05-18T09:48:42;3.28;;;0.80;;
54197;SDS011;40105;52.366;17.000;2023-05-18T09:51:11;5.70;;;0.95;;
54197;SDS011;40105;52.366;17.000;2023-05-18T09:53:40;1.75;;;0.77;;
54197;SDS011;40105;52.366;17.000;2023-05-18T09:56:06;3.72;;;1.30;;
54197;SDS011;40105;52.366;17.000;2023-05-18T09:58:35;4.70;;;0.90;;
54197;SDS011;40105;52.366;17.000;2023-05-18T10:01:01;3.00;;;1.20;;
54197;SDS011;40105;52.366;17.000;2023-05-18T10:03:33;2.70;;;0.88;;
54197;SDS011;40105;52.366;17.000;2023-05-18T10:06:07;12.02;;;1.10;;
54197;SDS011;40105;52.366;17.000;2023-05-18T10:08:35;2.17;;;1.10;;
54197;SDS011;40105;52.366;17.000;2023-05-18T10:11:00;5.45;;;0.85;;
54197;SDS011;40105;52.366;17.000;2023-05-18T10:13:26;1.77;;;0.77;;
54197;SDS011;40105;52.366;17.000;2023-05-18T10:15:53;5.63;;;1.00;;
54197;SDS011;40105;52.366;17.000;2023-05-18T10:18:20;4.38;;;0.95;;
54197;SDS011;40105;52.366;17.000;2023-05-18T10:20:46;4.97;;;1.33;;
54197;SDS011;40105;52.366;17.000;2023-05-18T10:23:11;6.75;;;0.70;;
54197;SDS011;40105;52.366;17.000;2023-05-18T10:25:37;12.07;;;0.95;;
54197;SDS011;40105;52.366;17.000;2023-05-18T10:28:04;3.10;;;0.80;;
54197;SDS011;40105;52.366;17.000;2023-05-18T10:30:30;3.92;;;0.82;;
54197;SDS011;40105;52.366;17.000;2023-05-18T10:32:56;6.72;;;1.42;;
54197;SDS011;40105;52.366;17.000;2023-05-18T10:35:22;2.25;;;0.90;;
54197;SDS011;40105;52.366;17.000;2023-05-18T10:37:47;3.30;;;0.77;;
54197;SDS011;40105;52.366;17.000;2023-05-18T10:40:14;5.15;;;1.05;;
54197;SDS011;40105;52.366;17.000;2023-05-18T10:42:40;3.40;;;1.27;;
54197;SDS011;40105;52.366;17.000;2023-05-18T10:45:06;5.35;;;1.10;;
54197;SDS011;40105;52.366;17.000;2023-05-18T10:47:33;1.63;;;0.88;;
54197;SDS011;40105;52.366;17.000;2023-05-18T10:49:59;13.75;;;1.58;;
54197;SDS011;40105;52.366;17.000;2023-05-18T10:52:25;10.70;;;1.13;;
54197;SDS011;40105;52.366;17.000;2023-05-18T10:54:56;1.10;;;0.63;;
54197;SDS011;40105;52.366;17.000;2023-05-18T10:57:22;3.10;;;1.20;;
54197;SDS011;40105;52.366;17.000;2023-05-18T10:59:47;5.10;;;1.07;;
54197;SDS011;40105;52.366;17.000;2023-05-18T11:02:13;1.80;;;0.93;;
54197;SDS011;40105;52.366;17.000;2023-05-18T11:04:38;15.30;;;1.45;;
54197;SDS011;40105;52.366;17.000;2023-05-18T11:07:08;3.70;;;0.98;;
54197;SDS011;40105;52.366;17.000;2023-05-18T11:09:34;5.10;;;1.10;;
54197;SDS011;40105;52.366;17.000;2023-05-18T11:11:59;5.83;;;1.07;;
54197;SDS011;40105;52.366;17.000;2023-05-18T11:14:25;4.03;;;1.10;;
54197;SDS011;40105;52.366;17.000;2023-05-18T11:16:51;5.72;;;0.95;;
54197;SDS011;40105;52.366;17.000;2023-05-18T11:19:17;2.60;;;1.02;;
54197;SDS011;40105;52.366;17.000;2023-05-18T11:24:20;1.17;;;0.70;;
54197;SDS011;40105;52.366;17.000;2023-05-18T11:26:46;5.70;;;1.05;;
54197;SDS011;40105;52.366;17.000;2023-05-18T11:29:15;3.08;;;0.88;;
54197;SDS011;40105;52.366;17.000;2023-05-18T11:31:45;2.88;;;0.80;;
54197;SDS011;40105;52.366;17.000;2023-05-18T11:36:54;3.47;;;1.02;;
54197;SDS011;40105;52.366;17.000;2023-05-18T11:39:22;9.30;;;1.38;;
54197;SDS011;40105;52.366;17.000;2023-05-18T11:41:57;3.15;;;0.93;;
54197;SDS011;40105;52.366;17.000;2023-05-18T11:44:22;10.27;;;0.95;;
54197;SDS011;40105;52.366;17.000;2023-05-18T11:46:59;6.30;;;0.88;;
54197;SDS011;40105;52.366;17.000;2023-05-18T11:49:26;8.05;;;1.38;;
54197;SDS011;40105;52.366;17.000;2023-05-18T11:52:04;7.63;;;0.95;;
54197;SDS011;40105;52.366;17.000;2023-05-18T11:54:32;4.57;;;0.93;;
54197;SDS011;40105;52.366;17.000;2023-05-18T11:56:57;1.40;;;0.70;;
54197;SDS011;40105;52.366;17.000;2023-05-18T11:59:29;1.40;;;0.90;;
54197;SDS011;40105;52.366;17.000;2023-05-18T12:01:59;3.25;;;1.00;;
54197;SDS011;40105;52.366;17.000;2023-05-18T12:04:25;2.97;;;0.95;;
54197;SDS011;40105;52.366;17.000;2023-05-18T12:06:51;2.55;;;0.82;;
54197;SDS011;40105;52.366;17.000;2023-05-18T12:09:17;2.30;;;0.90;;
54197;SDS011;40105;52.366;17.000;2023-05-18T12:11:42;9.55;;;1.15;;
54197;SDS011;40105;52.366;17.000;2023-05-18T12:14:07;4.10;;;0.93;;
54197;SDS011;40105;52.366;17.000;2023-05-18T12:16:33;2.57;;;0.77;;
54197;SDS011;40105;52.366;17.000;2023-05-18T12:19:00;8.88;;;1.13;;
54197;SDS011;40105;52.366;17.000;2023-05-18T12:21:25;1.37;;;0.67;;
54197;SDS011;40105;52.366;17.000;2023-05-18T12:23:59;1.50;;;0.50;;
54197;SDS011;40105;52.366;17.000;2023-05-18T12:26:25;1.17;;;0.60;;
54197;SDS011;40105;52.366;17.000;2023-05-18T12:28:52;2.70;;;0.82;;
54197;SDS011;40105;52.366;17.000;2023-05-18T12:31:18;1.35;;;0.60;;
54197;SDS011;40105;52.366;17.000;2023-05-18T12:33:43;4.83;;;0.70;;
54197;SDS011;40105;52.366;17.000;2023-05-18T12:36:09;3.50;;;0.60;;
54197;SDS011;40105;52.366;17.000;2023-05-18T12:38:35;1.88;;;0.65;;
54197;SDS011;40105;52.366;17.000;2023-05-18T12:41:00;5.10;;;0.97;;
54197;SDS011;40105;52.366;17.000;2023-05-18T12:43:26;3.20;;;1.05;;
54197;SDS011;40105;52.366;17.000;2023-05-18T12:45:51;6.23;;;0.70;;
54197;SDS011;40105;52.366;17.000;2023-05-18T12:48:16;7.00;;;0.97;;
54197;SDS011;40105;52.366;17.000;2023-05-18T12:50:45;5.17;;;0.70;;
54197;SDS011;40105;52.366;17.000;2023-05-18T12:53:10;8.07;;;0.80;;
54197;SDS011;40105;52.366;17.000;2023-05-18T12:55:35;3.57;;;0.93;;
54197;SDS011;40105;52.366;17.000;2023-05-18T12:58:04;1.40;;;0.70;;
54197;SDS011;40105;52.366;17.000;2023-05-18T13:00:33;9.50;;;1.30;;
54197;SDS011;40105;52.366;17.000;2023-05-18T13:03:05;4.15;;;1.08;;
54197;SDS011;40105;52.366;17.000;2023-05-18T13:05:31;4.15;;;1.00;;
54197;SDS011;40105;52.366;17.000;2023-05-18T13:07:56;3.40;;;0.97;;
54197;SDS011;40105;52.366;17.000;2023-05-18T13:10:21;3.28;;;1.10;;
54197;SDS011;40105;52.366;17.000;2023-05-18T13:12:47;2.93;;;0.70;;
54197;SDS011;40105;52.366;17.000;2023-05-18T13:15:17;6.05;;;0.68;;
54197;SDS011;40105;52.366;17.000;2023-05-18T13:17:58;18.02;;;1.33;;
54197;SDS011;40105;52.366;17.000;2023-05-18T13:20:39;13.30;;;1.15;;
54197;SDS011;40105;52.366;17.000;2023-05-18T13:25:30;3.80;;;0.70;;
54197;SDS011;40105;52.366;17.000;2023-05-18T13:27:55;5.15;;;1.20;;
54197;SDS011;40105;52.366;17.000;2023-05-18T13:30:21;3.67;;;0.80;;
54197;SDS011;40105;52.366;17.000;2023-05-18T13:32:46;10.35;;;1.13;;
54197;SDS011;40105;52.366;17.000;2023-05-18T13:35:11;6.73;;;0.87;;
54197;SDS011;40105;52.366;17.000;2023-05-18T13:37:37;2.30;;;0.60;;
54197;SDS011;40105;52.366;17.000;2023-05-18T13:40:02;19.25;;;1.05;;
54197;SDS011;40105;52.366;17.000;2023-05-18T13:42:28;2.25;;;0.77;;
54197;SDS011;40105;52.366;17.000;2023-05-18T13:44:54;2.00;;;0.80;;
54197;SDS011;40105;52.366;17.000;2023-05-18T13:47:19;4.20;;;0.95;;
54197;SDS011;40105;52.366;17.000;2023-05-18T13:49:44;3.00;;;0.80;;
54197;SDS011;40105;52.366;17.000;2023-05-18T13:52:09;1.87;;;0.60;;
54197;SDS011;40105;52.366;17.000;2023-05-18T13:54:35;7.03;;;0.87;;
54197;SDS011;40105;52.366;17.000;2023-05-18T13:57:00;3.90;;;0.80;;
54197;SDS011;40105;52.366;17.000;2023-05-18T13:59:26;4.95;;;0.90;;
54197;SDS011;40105;52.366;17.000;2023-05-18T14:01:51;6.50;;;0.82;;
54197;SDS011;40105;52.366;17.000;2023-05-18T14:04:16;7.13;;;0.80;;
54197;SDS011;40105;52.366;17.000;2023-05-18T14:06:41;6.30;;;0.80;;
54197;SDS011;40105;52.366;17.000;2023-05-18T14:09:07;1.77;;;0.77;;
54197;SDS011;40105;52.366;17.000;2023-05-18T14:11:32;9.17;;;1.80;;
54197;SDS011;40105;52.366;17.000;2023-05-18T14:13:58;9.73;;;1.25;;
54197;SDS011;40105;52.366;17.000;2023-05-18T14:16:23;6.07;;;0.60;;
54197;SDS011;40105;52.366;17.000;2023-05-18T14:18:49;14.85;;;2.40;;
54197;SDS011;40105;52.366;17.000;2023-05-18T14:21:14;10.77;;;1.40;;
54197;SDS011;40105;52.366;17.000;2023-05-18T14:23:39;5.10;;;0.80;;
54197;SDS011;40105;52.366;17.000;2023-05-18T14:26:05;8.87;;;0.80;;
54197;SDS011;40105;52.366;17.000;2023-05-18T14:28:30;2.87;;;1.00;;
54197;SDS011;40105;52.366;17.000;2023-05-18T14:30:55;6.00;;;0.53;;
54197;SDS011;40105;52.366;17.000;2023-05-18T14:33:20;4.80;;;1.65;;
54197;SDS011;40105;52.366;17.000;2023-05-18T14:35:46;3.93;;;1.37;;
54197;SDS011;40105;52.366;17.000;2023-05-18T14:38:11;2.20;;;0.83;;
54197;SDS011;40105;52.366;17.000;2023-05-18T14:40:36;5.00;;;1.00;;